createdAt,value
2018-05-31T04:02:12.757Z,17.10
2018-05-31T04:04:38.520Z,16.80
2018-05-31T04:07:04.300Z,16.03
2018-05-31T04:09:30.093Z,18.93
2018-05-31T04:11:55.873Z,17.40
2018-05-31T04:14:21.655Z,17.20
2018-05-31T04:16:47.443Z,17.97
2018-05-31T04:19:13.221Z,15.90
2018-05-31T04:21:39.001Z,19.10
2018-05-31T04:24:04.768Z,18.40
2018-05-31T04:26:30.561Z,17.80
2018-05-31T04:28:56.349Z,16.67
2018-05-31T04:31:22.224Z,18.23
2018-05-31T04:33:47.993Z,18.87
2018-05-31T04:36:13.757Z,19.37
2018-05-31T04:38:39.678Z,17.50
2018-05-31T04:41:05.464Z,18.20
2018-05-31T04:43:31.241Z,17.97
2018-05-31T04:45:57.001Z,19.23
2018-05-31T04:48:22.777Z,18.50
2018-05-31T04:50:48.537Z,19.83
2018-05-31T04:53:14.304Z,20.57
2018-05-31T04:55:40.077Z,19.80
2018-05-31T04:58:05.856Z,20.87
2018-05-31T05:00:31.621Z,19.83
2018-05-31T05:02:57.440Z,18.00
2018-05-31T05:05:23.181Z,19.57
2018-05-31T05:07:48.949Z,19.53
2018-05-31T05:10:14.717Z,19.90
2018-05-31T05:12:40.491Z,18.97
2018-05-31T05:15:06.260Z,19.80
2018-05-31T05:17:32.043Z,18.70
2018-05-31T05:19:57.814Z,20.00
2018-05-31T05:22:23.586Z,18.83
2018-05-31T05:24:49.369Z,19.87
2018-05-31T05:27:15.133Z,19.20
2018-05-31T05:29:40.912Z,19.37
2018-05-31T05:32:06.704Z,21.37
2018-05-31T05:34:32.485Z,19.83
2018-05-31T05:36:58.257Z,19.43
2018-05-31T05:39:24.035Z,18.93
2018-05-31T05:41:49.803Z,20.17
2018-05-31T05:44:15.598Z,20.73
2018-05-31T05:46:41.378Z,20.50
2018-05-31T05:49:07.160Z,19.20
2018-05-31T05:51:32.930Z,18.87
2018-05-31T05:53:58.726Z,20.57
2018-05-31T05:56:24.553Z,19.30
2018-05-31T05:58:50.273Z,20.80
2018-05-31T06:01:16.074Z,20.43
2018-05-31T06:03:41.861Z,20.90
2018-05-31T06:06:07.809Z,19.20
2018-05-31T06:08:33.577Z,20.03
2018-05-31T06:10:59.350Z,19.00
2018-05-31T06:13:25.132Z,19.40
2018-05-31T06:15:50.914Z,18.90
2018-05-31T06:18:16.708Z,19.97
2018-05-31T06:20:42.492Z,19.70
2018-05-31T06:23:08.262Z,20.13
2018-05-31T06:25:34.045Z,19.90
2018-05-31T06:27:59.817Z,20.97
2018-05-31T06:30:25.601Z,20.50
2018-05-31T06:32:51.376Z,19.73
2018-05-31T06:35:17.154Z,19.63
2018-05-31T06:37:42.913Z,18.93
2018-05-31T06:40:08.686Z,17.93
2018-05-31T06:42:34.553Z,18.70
2018-05-31T06:45:00.316Z,19.80
2018-05-31T06:47:26.101Z,17.27
2018-05-31T06:49:51.861Z,16.70
2018-05-31T06:52:17.646Z,17.07
2018-05-31T06:54:43.422Z,18.50
2018-05-31T06:57:09.218Z,18.17
2018-05-31T06:59:34.981Z,17.83
2018-05-31T07:02:00.767Z,16.80
2018-05-31T07:04:26.554Z,17.70
2018-05-31T07:06:52.340Z,17.33
2018-05-31T07:09:18.090Z,16.00
2018-05-31T07:11:43.881Z,17.17
2018-05-31T07:14:09.650Z,17.03
2018-05-31T07:16:35.436Z,16.90
2018-05-31T07:19:01.203Z,17.87
2018-05-31T07:21:26.990Z,17.40
2018-05-31T07:23:52.761Z,17.40
2018-05-31T07:26:18.537Z,16.27
2018-05-31T07:28:44.313Z,16.53
2018-05-31T07:31:10.109Z,17.67
2018-05-31T07:33:35.894Z,16.80
2018-05-31T07:36:01.670Z,17.00
2018-05-31T07:38:27.449Z,16.93
2018-05-31T07:40:53.212Z,16.30
2018-05-31T07:43:18.981Z,17.30
2018-05-31T07:45:44.752Z,15.60
2018-05-31T07:48:10.527Z,15.83
2018-05-31T07:50:36.306Z,17.40
2018-05-31T07:53:02.086Z,16.83
2018-05-31T07:55:27.850Z,18.00
2018-05-31T07:57:53.621Z,16.10
2018-05-31T08:00:19.386Z,17.73
2018-05-31T08:02:45.153Z,16.50
2018-05-31T08:05:10.941Z,15.70
2018-05-31T08:07:36.705Z,16.07
2018-05-31T08:10:02.519Z,15.30
2018-05-31T08:12:28.280Z,16.60
2018-05-31T08:14:54.048Z,16.10
2018-05-31T08:17:19.807Z,15.73
2018-05-31T08:19:45.585Z,16.10
2018-05-31T08:22:11.369Z,16.60
2018-05-31T08:24:37.146Z,15.90
2018-05-31T08:27:02.910Z,15.70
2018-05-31T08:29:35.780Z,15.13
2018-05-31T08:32:05.654Z,16.67
2018-05-31T08:34:38.234Z,16.03
2018-05-31T08:37:04.133Z,16.70
2018-05-31T08:39:29.954Z,15.60
2018-05-31T08:41:55.757Z,15.67
2018-05-31T08:44:21.531Z,16.37
2018-05-31T08:46:47.284Z,15.20
2018-05-31T08:49:13.052Z,15.43
2018-05-31T08:51:38.823Z,16.73
2018-05-31T08:54:04.600Z,15.17
2018-05-31T08:56:30.459Z,16.33
2018-05-31T08:58:56.286Z,16.90
2018-05-31T09:01:22.066Z,14.60
2018-05-31T09:03:47.846Z,16.10
2018-05-31T09:06:13.638Z,15.87
2018-05-31T09:08:39.425Z,15.43
2018-05-31T09:11:05.214Z,14.60
2018-05-31T09:13:30.973Z,13.90
2018-05-31T09:15:56.764Z,14.97
2018-05-31T09:18:22.534Z,13.50
2018-05-31T09:20:48.334Z,13.27
2018-05-31T09:23:14.119Z,14.87
2018-05-31T09:25:39.895Z,13.50
2018-05-31T09:28:05.678Z,14.00
2018-05-31T09:30:31.470Z,13.30
2018-05-31T09:32:57.258Z,12.53
2018-05-31T09:35:23.034Z,13.23
2018-05-31T09:37:48.825Z,12.17
2018-05-31T09:40:14.613Z,11.93
2018-05-31T09:42:40.393Z,11.30
2018-05-31T09:45:06.161Z,11.90
2018-05-31T09:47:31.950Z,12.53
2018-05-31T09:49:57.716Z,10.77
2018-05-31T09:52:23.489Z,11.23
2018-05-31T09:54:49.261Z,11.20
2018-05-31T09:57:15.059Z,10.80
2018-05-31T09:59:40.821Z,9.10
2018-05-31T10:02:06.601Z,8.60
2018-05-31T10:04:32.377Z,7.90
2018-05-31T10:06:58.137Z,8.50
2018-05-31T10:09:23.919Z,8.70
2018-05-31T10:11:49.702Z,8.73
2018-05-31T10:14:15.494Z,8.20
2018-05-31T10:16:41.287Z,9.30
2018-05-31T10:19:07.062Z,9.60
2018-05-31T10:21:33.641Z,9.50
2018-05-31T10:23:59.429Z,9.90
2018-05-31T10:26:25.207Z,8.90
2018-05-31T10:28:50.991Z,9.23
2018-05-31T10:31:16.761Z,9.10
2018-05-31T10:33:42.554Z,8.90
2018-05-31T10:36:08.312Z,8.37
2018-05-31T10:38:34.102Z,9.20
2018-05-31T10:40:59.891Z,8.67
2018-05-31T10:43:25.707Z,9.47
2018-05-31T10:45:51.491Z,9.10
2018-05-31T10:48:18.708Z,8.93
2018-05-31T10:50:44.490Z,8.67
2018-05-31T10:53:10.261Z,8.50
2018-05-31T10:55:36.110Z,8.10
2018-05-31T10:58:03.383Z,7.33
2018-05-31T11:00:29.224Z,7.67
2018-05-31T11:02:54.993Z,7.53
2018-05-31T11:05:20.934Z,7.33
2018-05-31T11:07:46.711Z,7.10
2018-05-31T11:10:12.491Z,7.60
2018-05-31T11:12:38.270Z,5.53
2018-05-31T11:15:04.035Z,6.40
2018-05-31T11:17:29.809Z,5.90
2018-05-31T11:19:55.588Z,6.37
2018-05-31T11:22:21.360Z,6.23
2018-05-31T11:24:47.108Z,6.20
2018-05-31T11:27:12.894Z,5.90
2018-05-31T11:29:38.670Z,6.40
2018-05-31T11:32:04.489Z,6.10
2018-05-31T11:34:30.274Z,6.77
2018-05-31T11:36:56.065Z,6.70
2018-05-31T11:39:21.850Z,6.80
2018-05-31T11:41:47.630Z,6.40
2018-05-31T11:44:13.409Z,6.20
2018-05-31T11:46:39.200Z,6.33
2018-05-31T11:49:05.001Z,5.93
2018-05-31T11:51:30.789Z,5.33
2018-05-31T11:53:56.572Z,5.43
2018-05-31T11:56:22.361Z,6.18
2018-05-31T11:58:48.144Z,6.03
2018-05-31T12:01:13.914Z,5.40
2018-05-31T12:03:39.723Z,6.50
2018-05-31T12:06:05.489Z,5.95
2018-05-31T12:08:31.281Z,5.40
2018-05-31T12:10:57.061Z,5.50
2018-05-31T12:13:22.844Z,5.18
2018-05-31T12:15:48.661Z,5.72
2018-05-31T12:18:14.442Z,5.57
2018-05-31T12:20:40.217Z,5.37
2018-05-31T12:23:06.018Z,5.25
2018-05-31T12:25:31.816Z,5.75
2018-05-31T12:27:57.584Z,5.68
2018-05-31T12:30:23.368Z,5.28
2018-05-31T12:32:49.132Z,5.03
2018-05-31T12:35:14.921Z,5.93
2018-05-31T12:37:40.744Z,5.60
2018-05-31T12:40:06.503Z,5.75
2018-05-31T12:42:32.286Z,5.70
2018-05-31T12:44:58.076Z,5.43
2018-05-31T12:47:23.846Z,5.43
2018-05-31T12:49:49.637Z,5.47
2018-05-31T12:52:15.404Z,6.00
2018-05-31T12:54:41.192Z,5.20
2018-05-31T12:57:06.997Z,5.85
2018-05-31T12:59:32.791Z,5.15
2018-05-31T13:01:58.564Z,5.55
2018-05-31T13:04:24.354Z,5.25
2018-05-31T13:06:50.141Z,5.50
2018-05-31T13:09:15.921Z,4.93
2018-05-31T13:11:41.698Z,5.47
2018-05-31T13:14:07.478Z,5.07
2018-05-31T13:16:33.271Z,5.53
2018-05-31T13:18:59.061Z,5.35
2018-05-31T13:21:24.856Z,5.07
2018-05-31T13:23:50.641Z,5.40
2018-05-31T13:26:16.430Z,5.00
2018-05-31T13:28:42.207Z,5.37
2018-05-31T13:31:07.993Z,5.40
2018-05-31T13:33:33.782Z,4.82
2018-05-31T13:35:59.578Z,5.60
2018-05-31T13:38:25.363Z,4.77
2018-05-31T13:40:51.169Z,4.40
2018-05-31T13:43:16.969Z,4.70
2018-05-31T13:45:42.741Z,4.57
2018-05-31T13:48:08.543Z,4.93
2018-05-31T13:50:34.313Z,5.27
2018-05-31T13:53:00.109Z,4.97
2018-05-31T13:55:25.897Z,5.10
2018-05-31T13:57:51.704Z,4.93
2018-05-31T14:00:17.486Z,4.83
2018-05-31T14:02:43.279Z,5.90
2018-05-31T14:05:09.069Z,5.80
2018-05-31T14:07:34.865Z,6.20
2018-05-31T14:10:00.649Z,6.30
2018-05-31T14:12:26.451Z,6.07
2018-05-31T14:14:52.237Z,6.20
2018-05-31T14:17:18.046Z,6.43
2018-05-31T14:19:43.825Z,6.23
2018-05-31T14:22:09.603Z,7.20
2018-05-31T14:24:35.444Z,6.77
2018-05-31T14:27:01.182Z,7.97
2018-05-31T14:29:26.977Z,7.13
2018-05-31T14:31:52.775Z,6.97
2018-05-31T14:34:18.569Z,6.70
2018-05-31T14:36:44.345Z,6.60
2018-05-31T14:39:10.129Z,7.17
2018-05-31T14:41:35.905Z,6.77
2018-05-31T14:44:01.717Z,6.43
2018-05-31T14:46:27.494Z,6.73
2018-05-31T14:48:53.285Z,6.73
2018-05-31T14:51:19.058Z,6.57
2018-05-31T14:53:44.841Z,7.30
2018-05-31T14:56:10.635Z,6.57
2018-05-31T14:58:36.413Z,6.00
2018-05-31T15:01:02.200Z,6.23
2018-05-31T15:03:27.962Z,6.53
2018-05-31T15:05:53.766Z,6.33
2018-05-31T15:08:19.553Z,6.70
2018-05-31T15:10:45.331Z,6.37
2018-05-31T15:13:11.097Z,6.63
2018-05-31T15:15:36.887Z,6.17
2018-05-31T15:18:02.652Z,6.33
2018-05-31T15:20:28.453Z,6.17
2018-05-31T15:22:54.236Z,6.40
2018-05-31T15:25:20.029Z,6.80
2018-05-31T15:27:45.802Z,6.00
2018-05-31T15:30:11.585Z,6.20
2018-05-31T15:32:37.369Z,6.97
2018-05-31T15:35:03.162Z,6.80
2018-05-31T15:37:28.937Z,6.13
2018-05-31T15:39:54.711Z,6.80
2018-05-31T15:42:20.508Z,5.67
2018-05-31T15:44:46.302Z,6.20
2018-05-31T15:47:12.103Z,6.03
2018-05-31T15:49:37.856Z,6.63
2018-05-31T15:52:03.689Z,8.17
2018-05-31T15:54:29.453Z,7.73
2018-05-31T15:56:55.237Z,8.27
2018-05-31T15:59:21.020Z,8.33
2018-05-31T16:01:46.814Z,8.80
2018-05-31T16:04:12.600Z,8.90
2018-05-31T16:06:38.390Z,9.00
2018-05-31T16:09:04.197Z,8.33
2018-05-31T16:11:29.952Z,9.03
2018-05-31T16:13:55.733Z,8.67
2018-05-31T16:16:21.513Z,9.10
2018-05-31T16:18:47.315Z,9.20
2018-05-31T16:21:13.094Z,10.30
2018-05-31T16:23:38.874Z,11.97
2018-05-31T16:26:04.647Z,10.87
2018-05-31T16:28:30.471Z,12.27
2018-05-31T16:31:02.297Z,10.93
2018-05-31T16:33:28.064Z,11.60
2018-05-31T16:35:53.832Z,11.27
2018-05-31T16:38:19.613Z,10.60
2018-05-31T16:40:45.404Z,10.40
2018-05-31T16:43:11.219Z,10.07
2018-05-31T16:45:37.013Z,10.57
2018-05-31T16:48:02.772Z,10.40
2018-05-31T16:50:28.554Z,10.60
2018-05-31T16:52:54.332Z,9.90
2018-05-31T16:55:20.106Z,11.97
2018-05-31T16:57:45.882Z,11.50
2018-05-31T17:00:11.652Z,13.33
2018-05-31T17:02:37.426Z,11.10
2018-05-31T17:05:03.222Z,11.07
2018-05-31T17:07:28.982Z,11.10
2018-05-31T17:09:54.771Z,11.60
2018-05-31T17:12:20.541Z,10.70
2018-05-31T17:14:46.306Z,11.00
2018-05-31T17:17:12.081Z,11.90
2018-05-31T17:19:37.851Z,11.70
2018-05-31T17:22:03.645Z,12.03
2018-05-31T17:24:29.400Z,11.33
2018-05-31T17:27:04.413Z,9.80
2018-05-31T17:29:30.181Z,9.00
2018-05-31T17:31:56.343Z,8.60
2018-05-31T17:34:22.573Z,8.83
2018-05-31T17:36:48.686Z,18.70
2018-05-31T17:39:14.750Z,10.73
2018-05-31T17:41:40.771Z,14.03
2018-05-31T17:44:06.595Z,16.23
2018-05-31T17:46:32.579Z,11.07
2018-05-31T17:48:58.523Z,10.30
2018-05-31T17:51:24.337Z,9.60
2018-05-31T17:53:50.658Z,9.20
2018-05-31T17:56:16.850Z,9.50
2018-05-31T17:58:42.951Z,9.90
2018-05-31T18:01:08.960Z,10.53
2018-05-31T18:03:34.977Z,10.10
2018-05-31T18:06:01.068Z,10.50
2018-05-31T18:08:27.159Z,10.83
2018-05-31T18:10:53.249Z,9.90
2018-05-31T18:13:19.285Z,10.20
2018-05-31T18:15:45.232Z,11.07
2018-05-31T18:18:11.152Z,10.83
2018-05-31T18:20:37.164Z,11.67
2018-05-31T18:23:03.166Z,10.43
2018-05-31T18:25:29.034Z,10.50
2018-05-31T18:27:54.861Z,10.87
2018-05-31T18:30:20.739Z,11.20
2018-05-31T18:32:46.673Z,10.80
2018-05-31T18:35:12.720Z,11.60
2018-05-31T18:37:38.543Z,12.30
2018-05-31T18:40:04.592Z,11.77
2018-05-31T18:42:30.387Z,13.03
2018-05-31T18:44:56.169Z,13.53
2018-05-31T18:47:21.966Z,12.17
2018-05-31T18:49:47.748Z,11.87
2018-05-31T18:52:13.528Z,10.93
2018-05-31T18:54:39.562Z,11.87
2018-05-31T18:57:05.327Z,11.10
2018-05-31T18:59:31.192Z,11.83
2018-05-31T19:01:56.893Z,11.30
2018-05-31T19:04:22.654Z,11.83
2018-05-31T19:06:48.421Z,11.10
2018-05-31T19:22:33.046Z,11.50
2018-05-31T19:25:04.855Z,11.00
2018-05-31T19:27:30.605Z,10.37
2018-05-31T19:30:02.586Z,12.07
2018-05-31T19:32:28.377Z,10.60
2018-05-31T19:34:54.104Z,12.53
2018-05-31T19:37:19.872Z,11.40
2018-05-31T19:39:45.660Z,12.00
2018-05-31T19:42:17.594Z,12.30
2018-05-31T19:44:43.400Z,11.90
2018-05-31T19:47:09.226Z,12.80
2018-05-31T19:49:35.005Z,12.50
2018-05-31T19:52:07.010Z,12.67
2018-05-31T19:54:32.813Z,11.77
2018-05-31T19:56:58.606Z,12.80
2018-05-31T19:59:30.476Z,12.30
2018-05-31T20:02:02.473Z,11.97
2018-05-31T20:04:28.267Z,12.80
2018-05-31T20:06:54.057Z,12.47
2018-05-31T20:09:19.896Z,12.00
2018-05-31T20:11:45.664Z,12.80
2018-05-31T20:14:11.453Z,12.90
2018-05-31T20:16:37.230Z,11.90
2018-05-31T20:19:03.009Z,13.23
2018-05-31T20:21:28.783Z,13.93
2018-05-31T20:23:56.447Z,12.03
2018-05-31T20:26:25.892Z,13.07
2018-05-31T20:28:54.268Z,12.50
2018-05-31T20:31:20.053Z,14.53
2018-05-31T20:33:45.813Z,13.47
2018-05-31T20:36:13.092Z,13.53
2018-05-31T20:38:38.878Z,14.20
2018-05-31T20:41:04.659Z,14.20
2018-05-31T20:43:30.449Z,14.30
2018-05-31T20:45:56.222Z,14.03
2018-05-31T20:48:22.014Z,15.97
2018-05-31T20:50:47.830Z,14.73
2018-05-31T20:53:13.614Z,15.00
2018-05-31T20:55:39.410Z,15.37
2018-05-31T20:58:05.202Z,15.60
2018-05-31T21:00:31.879Z,14.90
2018-05-31T21:02:57.669Z,16.17
2018-05-31T21:05:23.432Z,14.10
2018-05-31T21:07:49.220Z,11.57
2018-05-31T21:10:14.984Z,11.67
2018-05-31T21:12:40.844Z,13.37
2018-05-31T21:15:06.613Z,12.30
2018-05-31T21:17:32.402Z,13.10
2018-05-31T21:19:58.235Z,12.80
2018-05-31T21:22:23.980Z,13.27
2018-05-31T21:24:49.760Z,11.70
2018-05-31T21:27:15.507Z,12.43
2018-05-31T21:29:41.296Z,12.17
2018-05-31T21:32:07.071Z,11.77
2018-05-31T21:34:32.850Z,10.47
2018-05-31T21:36:58.614Z,11.90
2018-05-31T21:39:24.385Z,11.23
2018-05-31T21:41:50.175Z,11.97
2018-05-31T21:44:15.959Z,11.47
2018-05-31T21:46:41.729Z,10.80
2018-05-31T21:49:07.502Z,10.43
2018-05-31T21:51:33.302Z,11.77
2018-05-31T21:53:59.082Z,10.50
2018-05-31T21:56:24.894Z,10.70
2018-05-31T21:58:50.657Z,10.70
2018-05-31T22:01:22.565Z,11.50
2018-05-31T22:03:48.382Z,11.27
2018-05-31T22:06:14.234Z,11.20
2018-05-31T22:08:40.022Z,11.20
2018-05-31T22:11:05.801Z,11.07
2018-05-31T22:13:31.573Z,11.00
2018-05-31T22:15:57.368Z,9.50
2018-05-31T22:18:23.142Z,10.80
2018-05-31T22:20:48.912Z,9.93
2018-05-31T22:23:14.689Z,10.17
2018-05-31T22:25:40.450Z,10.80
2018-05-31T22:28:06.235Z,11.50
2018-05-31T22:30:32.001Z,10.90
2018-05-31T22:32:57.782Z,10.37
2018-05-31T22:35:23.560Z,9.57
2018-05-31T22:37:49.344Z,11.00
2018-05-31T22:40:15.121Z,10.87
2018-05-31T22:42:40.908Z,10.70
2018-05-31T22:45:06.820Z,10.33
2018-05-31T22:47:32.631Z,10.77
2018-05-31T22:49:58.613Z,9.90
2018-05-31T22:52:24.826Z,10.23
2018-05-31T22:54:50.598Z,11.60
2018-05-31T22:57:16.408Z,11.43
2018-05-31T22:59:42.176Z,10.30
2018-05-31T23:02:07.935Z,11.10
2018-05-31T23:04:33.697Z,10.90
2018-05-31T23:06:59.581Z,10.37
2018-05-31T23:09:25.365Z,11.07
2018-05-31T23:11:51.114Z,11.43
2018-05-31T23:14:16.877Z,10.10
2018-05-31T23:16:42.642Z,10.47
2018-05-31T23:19:08.417Z,10.40
2018-05-31T23:21:34.192Z,10.40
2018-05-31T23:23:59.965Z,10.20
2018-05-31T23:26:25.737Z,10.50
2018-05-31T23:28:58.736Z,9.57
2018-05-31T23:31:26.311Z,9.97
2018-05-31T23:33:52.080Z,10.57
2018-05-31T23:36:17.833Z,10.80
2018-05-31T23:38:43.599Z,10.47
2018-05-31T23:41:09.901Z,10.60
2018-05-31T23:43:35.669Z,10.87
2018-05-31T23:46:01.451Z,10.50
2018-05-31T23:48:27.218Z,11.60
2018-05-31T23:50:52.987Z,10.53
2018-05-31T23:53:18.760Z,11.17
2018-05-31T23:55:44.528Z,10.77
2018-05-31T23:58:10.292Z,11.77
